sensor_id;sensor_type;location;lat;lon;timestamp;pressure;altitude;pressure_sealevel;temperature;humidity
23059;BME280;30585;51.502;7.218;2023-11-19T00:00:12;100023.66;;;9.66;97.44
23059;BME280;30585;51.502;7.218;2023-11-19T00:02:41;100043.03;;;9.71;97.51
23059;BME280;30585;51.502;7.218;2023-11-19T00:05:10;100018.88;;;9.58;97.10
23059;BME280;30585;51.502;7.218;2023-11-19T00:07:39;100042.03;;;9.83;97.44
23059;BME280;30585;51.502;7.218;2023-11-19T00:10:10;100050.75;;;9.86;97.10
23059;BME280;30585;51.502;7.218;2023-11-19T00:12:40;100060.31;;;9.90;97.13
23059;BME280;30585;51.502;7.218;2023-11-19T00:15:08;100058.22;;;9.94;97.27
23059;BME280;30585;51.502;7.218;2023-11-19T00:17:38;100058.84;;;9.98;97.14
23059;BME280;30585;51.502;7.218;2023-11-19T00:20:08;100054.19;;;10.00;97.27
23059;BME280;30585;51.502;7.218;2023-11-19T00:22:36;100061.78;;;10.06;97.23
23059;BME280;30585;51.502;7.218;2023-11-19T00:25:16;100055.28;;;9.97;97.33
23059;BME280;30585;51.502;7.218;2023-11-19T00:27:44;100053.47;;;10.09;97.53
23059;BME280;30585;51.502;7.218;2023-11-19T00:30:13;100052.97;;;10.15;97.55
23059;BME280;30585;51.502;7.218;2023-11-19T00:32:42;100065.00;;;10.22;97.49
23059;BME280;30585;51.502;7.218;2023-11-19T00:35:10;100077.88;;;10.30;97.48
23059;BME280;30585;51.502;7.218;2023-11-19T00:37:37;100061.22;;;10.36;97.12
23059;BME280;30585;51.502;7.218;2023-11-19T00:40:07;100051.03;;;10.39;97.19
23059;BME280;30585;51.502;7.218;2023-11-19T00:42:39;100049.53;;;10.46;97.33
23059;BME280;30585;51.502;7.218;2023-11-19T00:45:07;100037.28;;;10.53;96.79
23059;BME280;30585;51.502;7.218;2023-11-19T00:47:37;100041.66;;;10.66;96.84
23059;BME280;30585;51.502;7.218;2023-11-19T00:50:05;100033.69;;;10.64;96.79
23059;BME280;30585;51.502;7.218;2023-11-19T00:52:35;100036.13;;;10.67;96.86
23059;BME280;30585;51.502;7.218;2023-11-19T00:55:04;100029.28;;;10.63;96.89
23059;BME280;30585;51.502;7.218;2023-11-19T00:57:33;100041.66;;;10.77;96.53
23059;BME280;30585;51.502;7.218;2023-11-19T01:00:04;100031.97;;;10.74;96.74
23059;BME280;30585;51.502;7.218;2023-11-19T01:02:41;100018.47;;;10.74;96.96
23059;BME280;30585;51.502;7.218;2023-11-19T01:05:09;100013.78;;;10.76;97.06
23059;BME280;30585;51.502;7.218;2023-11-19T01:07:41;100013.88;;;10.86;96.72
23059;BME280;30585;51.502;7.218;2023-11-19T01:10:09;100004.34;;;10.82;96.90
23059;BME280;30585;51.502;7.218;2023-11-19T01:12:38;100008.34;;;10.87;96.62
23059;BME280;30585;51.502;7.218;2023-11-19T01:15:08;100005.94;;;10.84;97.26
23059;BME280;30585;51.502;7.218;2023-11-19T01:17:36;100009.31;;;10.86;97.10
23059;BME280;30585;51.502;7.218;2023-11-19T01:20:05;100005.56;;;10.78;96.83
23059;BME280;30585;51.502;7.218;2023-11-19T01:22:33;100008.22;;;10.89;97.37
23059;BME280;30585;51.502;7.218;2023-11-19T01:25:01;100009.44;;;10.96;97.45
23059;BME280;30585;51.502;7.218;2023-11-19T01:27:30;100023.66;;;10.98;97.35
23059;BME280;30585;51.502;7.218;2023-11-19T01:29:57;100020.09;;;10.98;97.38
23059;BME280;30585;51.502;7.218;2023-11-19T01:32:27;100026.84;;;11.03;97.29
23059;BME280;30585;51.502;7.218;2023-11-19T01:34:54;100017.34;;;11.09;97.09
23059;BME280;30585;51.502;7.218;2023-11-19T01:37:22;100020.91;;;11.09;97.35
23059;BME280;30585;51.502;7.218;2023-11-19T01:39:50;100013.09;;;11.06;97.50
23059;BME280;30585;51.502;7.218;2023-11-19T01:42:21;100016.47;;;11.08;97.29
23059;BME280;30585;51.502;7.218;2023-11-19T01:44:57;100010.69;;;11.13;97.54
23059;BME280;30585;51.502;7.218;2023-11-19T01:47:26;100009.09;;;11.10;97.67
23059;BME280;30585;51.502;7.218;2023-11-19T01:49:54;100005.44;;;11.11;97.60
23059;BME280;30585;51.502;7.218;2023-11-19T01:52:23;99999.63;;;11.16;97.57
23059;BME280;30585;51.502;7.218;2023-11-19T01:54:52;99994.44;;;11.24;97.24
23059;BME280;30585;51.502;7.218;2023-11-19T01:57:22;99995.56;;;11.21;97.37
23059;BME280;30585;51.502;7.218;2023-11-19T01:59:51;99990.03;;;11.23;97.50
23059;BME280;30585;51.502;7.218;2023-11-19T02:02:20;99990.75;;;11.25;97.09
23059;BME280;30585;51.502;7.218;2023-11-19T02:04:50;100000.47;;;11.27;97.11
23059;BME280;30585;51.502;7.218;2023-11-19T02:07:19;99992.53;;;11.36;96.94
23059;BME280;30585;51.502;7.218;2023-11-19T02:09:47;99980.00;;;11.35;96.94
23059;BME280;30585;51.502;7.218;2023-11-19T02:12:15;99986.28;;;11.35;96.93
23059;BME280;30585;51.502;7.218;2023-11-19T02:14:42;99987.84;;;11.38;96.76
23059;BME280;30585;51.502;7.218;2023-11-19T02:17:25;99975.47;;;11.35;96.57
23059;BME280;30585;51.502;7.218;2023-11-19T02:19:54;99918.41;;;11.08;96.75
23059;BME280;30585;51.502;7.218;2023-11-19T02:22:22;99955.19;;;11.41;96.50
23059;BME280;30585;51.502;7.218;2023-11-19T02:24:51;99956.03;;;11.41;96.81
23059;BME280;30585;51.502;7.218;2023-11-19T02:27:30;99948.53;;;11.45;96.62
23059;BME280;30585;51.502;7.218;2023-11-19T02:30:00;99949.03;;;11.39;96.47
23059;BME280;30585;51.502;7.218;2023-11-19T02:32:29;99966.19;;;11.49;96.23
23059;BME280;30585;51.502;7.218;2023-11-19T02:34:57;99958.81;;;11.51;96.11
23059;BME280;30585;51.502;7.218;2023-11-19T02:37:33;99949.03;;;11.59;95.82
23059;BME280;30585;51.502;7.218;2023-11-19T02:40:01;99945.59;;;11.57;95.88
23059;BME280;30585;51.502;7.218;2023-11-19T02:42:32;99935.63;;;11.58;95.76
23059;BME280;30585;51.502;7.218;2023-11-19T02:45:01;99946.31;;;11.59;95.62
23059;BME280;30585;51.502;7.218;2023-11-19T02:47:32;99942.34;;;11.63;95.36
23059;BME280;30585;51.502;7.218;2023-11-19T02:50:01;99944.72;;;11.57;95.94
23059;BME280;30585;51.502;7.218;2023-11-19T02:52:29;99945.31;;;11.60;95.40
23059;BME280;30585;51.502;7.218;2023-11-19T02:55:01;99949.03;;;11.59;95.60
23059;BME280;30585;51.502;7.218;2023-11-19T02:57:31;99942.22;;;11.65;95.35
23059;BME280;30585;51.502;7.218;2023-11-19T02:59:58;99935.75;;;11.77;94.61
23059;BME280;30585;51.502;7.218;2023-11-19T03:02:28;99943.00;;;11.77;94.85
23059;BME280;30585;51.502;7.218;2023-11-19T03:05:10;99927.91;;;11.74;94.96
23059;BME280;30585;51.502;7.218;2023-11-19T03:07:38;99924.19;;;11.75;95.00
23059;BME280;30585;51.502;7.218;2023-11-19T03:10:07;99931.59;;;11.73;95.01
23059;BME280;30585;51.502;7.218;2023-11-19T03:12:35;99918.09;;;11.73;95.07
23059;BME280;30585;51.502;7.218;2023-11-19T03:15:04;99917.56;;;11.79;94.74
23059;BME280;30585;51.502;7.218;2023-11-19T03:17:33;99928.09;;;11.82;94.69
23059;BME280;30585;51.502;7.218;2023-11-19T03:20:01;99927.38;;;11.80;94.87
23059;BME280;30585;51.502;7.218;2023-11-19T03:22:29;99920.53;;;11.76;95.33
23059;BME280;30585;51.502;7.218;2023-11-19T03:24:56;99912.69;;;11.73;95.62
23059;BME280;30585;51.502;7.218;2023-11-19T03:27:24;99892.22;;;11.80;94.97
23059;BME280;30585;51.502;7.218;2023-11-19T03:29:52;99916.56;;;11.80;95.13
23059;BME280;30585;51.502;7.218;2023-11-19T03:32:19;99911.28;;;11.79;95.14
23059;BME280;30585;51.502;7.218;2023-11-19T03:34:48;99925.94;;;11.76;95.38
23059;BME280;30585;51.502;7.218;2023-11-19T03:37:16;99932.19;;;11.77;95.31
23059;BME280;30585;51.502;7.218;2023-11-19T03:39:44;99931.47;;;11.75;95.34
23059;BME280;30585;51.502;7.218;2023-11-19T03:42:12;99929.59;;;11.75;95.21
23059;BME280;30585;51.502;7.218;2023-11-19T03:44:40;99931.59;;;11.73;95.06
23059;BME280;30585;51.502;7.218;2023-11-19T03:47:07;99943.41;;;11.72;94.71
23059;BME280;30585;51.502;7.218;2023-11-19T03:49:35;99942.69;;;11.70;94.30
23059;BME280;30585;51.502;7.218;2023-11-19T03:52:05;99934.72;;;11.69;93.85
23059;BME280;30585;51.502;7.218;2023-11-19T03:54:45;99933.13;;;11.66;93.76
23059;BME280;30585;51.502;7.218;2023-11-19T03:57:13;99944.22;;;11.63;93.31
23059;BME280;30585;51.502;7.218;2023-11-19T03:59:42;99940.91;;;11.59;93.26
23059;BME280;30585;51.502;7.218;2023-11-19T04:02:10;99945.72;;;11.56;92.91
23059;BME280;30585;51.502;7.218;2023-11-19T04:04:38;99944.72;;;11.57;92.46
23059;BME280;30585;51.502;7.218;2023-11-19T04:07:07;99947.13;;;11.50;92.63
23059;BME280;30585;51.502;7.218;2023-11-19T04:09:35;99948.13;;;11.49;92.48
23059;BME280;30585;51.502;7.218;2023-11-19T04:12:04;99934.75;;;11.48;92.51
23059;BME280;30585;51.502;7.218;2023-11-19T04:14:32;99939.44;;;11.46;92.41
23059;BME280;30585;51.502;7.218;2023-11-19T04:17:00;99940.53;;;11.43;92.09
23059;BME280;30585;51.502;7.218;2023-11-19T04:19:27;99925.69;;;11.28;92.57
23059;BME280;30585;51.502;7.218;2023-11-19T04:21:55;99942.78;;;11.38;91.78
23059;BME280;30585;51.502;7.218;2023-11-19T04:24:25;99942.03;;;11.26;91.91
23059;BME280;30585;51.502;7.218;2023-11-19T04:26:53;99943.44;;;11.30;91.72
23059;BME280;30585;51.502;7.218;2023-11-19T04:29:20;99943.31;;;11.32;91.32
23059;BME280;30585;51.502;7.218;2023-11-19T04:31:48;99949.13;;;11.27;91.43
23059;BME280;30585;51.502;7.218;2023-11-19T04:34:16;99959.47;;;11.22;91.86
23059;BME280;30585;51.502;7.218;2023-11-19T04:36:44;99957.41;;;11.15;92.08
23059;BME280;30585;51.502;7.218;2023-11-19T04:39:11;99965.00;;;11.21;91.38
23059;BME280;30585;51.502;7.218;2023-11-19T04:41:52;99976.31;;;11.15;91.66
23059;BME280;30585;51.502;7.218;2023-11-19T04:44:20;99969.41;;;11.22;91.17
23059;BME280;30585;51.502;7.218;2023-11-19T04:46:47;99974.22;;;11.18;90.47
23059;BME280;30585;51.502;7.218;2023-11-19T04:49:15;99976.66;;;11.21;90.34
23059;BME280;30585;51.502;7.218;2023-11-19T04:51:45;99958.16;;;11.17;90.45
23059;BME280;30585;51.502;7.218;2023-11-19T04:54:14;99968.09;;;11.16;90.47
23059;BME280;30585;51.502;7.218;2023-11-19T04:56:45;99970.78;;;11.16;90.46
23059;BME280;30585;51.502;7.218;2023-11-19T04:59:15;99966.16;;;11.07;90.42
23059;BME280;30585;51.502;7.218;2023-11-19T05:01:46;99978.69;;;11.08;90.21
23059;BME280;30585;51.502;7.218;2023-11-19T05:04:14;99972.88;;;11.13;89.63
23059;BME280;30585;51.502;7.218;2023-11-19T05:06:42;99973.88;;;11.12;90.08
23059;BME280;30585;51.502;7.218;2023-11-19T05:09:10;99973.75;;;11.13;90.19
23059;BME280;30585;51.502;7.218;2023-11-19T05:11:39;99971.84;;;11.25;89.72
23059;BME280;30585;51.502;7.218;2023-11-19T05:14:10;99981.94;;;11.23;90.15
23059;BME280;30585;51.502;7.218;2023-11-19T05:16:40;99984.81;;;11.31;89.26
23059;BME280;30585;51.502;7.218;2023-11-19T05:19:09;99992.78;;;11.32;89.31
23059;BME280;30585;51.502;7.218;2023-11-19T05:21:37;99973.38;;;11.18;89.69
23059;BME280;30585;51.502;7.218;2023-11-19T05:24:05;99984.25;;;11.27;89.25
23059;BME280;30585;51.502;7.218;2023-11-19T05:26:33;99979.69;;;11.28;89.43
23059;BME280;30585;51.502;7.218;2023-11-19T05:29:01;99988.06;;;11.25;89.55
23059;BME280;30585;51.502;7.218;2023-11-19T05:31:28;99983.66;;;11.24;89.53
23059;BME280;30585;51.502;7.218;2023-11-19T05:34:02;99989.06;;;11.24;89.83
23059;BME280;30585;51.502;7.218;2023-11-19T05:36:30;99981.81;;;11.24;89.88
23059;BME280;30585;51.502;7.218;2023-11-19T05:38:59;99977.13;;;11.26;89.47
23059;BME280;30585;51.502;7.218;2023-11-19T05:41:27;99981.81;;;11.24;89.93
23059;BME280;30585;51.502;7.218;2023-11-19T05:43:55;99975.69;;;11.22;89.60
23059;BME280;30585;51.502;7.218;2023-11-19T05:46:23;99982.31;;;11.18;89.78
23059;BME280;30585;51.502;7.218;2023-11-19T05:48:52;99985.63;;;11.22;89.53
23059;BME280;30585;51.502;7.218;2023-11-19T05:51:21;99965.59;;;11.24;89.69
23059;BME280;30585;51.502;7.218;2023-11-19T05:53:50;99965.34;;;11.27;89.58
23059;BME280;30585;51.502;7.218;2023-11-19T05:56:18;99963.63;;;11.26;89.62
23059;BME280;30585;51.502;7.218;2023-11-19T05:58:48;99974.31;;;11.28;89.72
23059;BME280;30585;51.502;7.218;2023-11-19T06:01:16;99965.47;;;11.26;89.46
23059;BME280;30585;51.502;7.218;2023-11-19T06:03:44;99973.44;;;11.27;89.62
23059;BME280;30585;51.502;7.218;2023-11-19T06:06:16;99976.31;;;11.36;89.02
23059;BME280;30585;51.502;7.218;2023-11-19T06:08:45;99991.19;;;11.30;88.97
23059;BME280;30585;51.502;7.218;2023-11-19T06:11:13;99974.69;;;11.23;88.93
23059;BME280;30585;51.502;7.218;2023-11-19T06:13:45;99986.22;;;11.25;88.49
23059;BME280;30585;51.502;7.218;2023-11-19T06:16:13;99980.69;;;11.27;87.36
23059;BME280;30585;51.502;7.218;2023-11-19T06:18:41;99985.75;;;11.20;88.39
23059;BME280;30585;51.502;7.218;2023-11-19T06:21:10;99989.56;;;11.18;88.59
23059;BME280;30585;51.502;7.218;2023-11-19T06:23:38;99983.31;;;11.17;88.04
23059;BME280;30585;51.502;7.218;2023-11-19T06:26:07;99983.09;;;11.09;88.27
23059;BME280;30585;51.502;7.218;2023-11-19T06:28:35;99988.50;;;11.09;88.00
23059;BME280;30585;51.502;7.218;2023-11-19T06:31:04;99988.50;;;11.09;87.72
23059;BME280;30585;51.502;7.218;2023-11-19T06:33:32;99999.78;;;11.14;87.52
23059;BME280;30585;51.502;7.218;2023-11-19T06:36:00;99995.88;;;11.07;87.94
23059;BME280;30585;51.502;7.218;2023-11-19T06:38:27;99988.78;;;11.06;87.67
23059;BME280;30585;51.502;7.218;2023-11-19T06:40:55;99993.44;;;11.04;87.90
23059;BME280;30585;51.502;7.218;2023-11-19T06:43:24;99988.06;;;11.04;87.75
23059;BME280;30585;51.502;7.218;2023-11-19T06:45:53;99973.19;;;10.78;87.50
23059;BME280;30585;51.502;7.218;2023-11-19T06:48:21;99993.03;;;11.09;87.10
23059;BME280;30585;51.502;7.218;2023-11-19T06:50:48;99981.53;;;11.07;87.03
23059;BME280;30585;51.502;7.218;2023-11-19T06:53:16;99996.88;;;11.06;87.13
23059;BME280;30585;51.502;7.218;2023-11-19T06:55:44;100005.50;;;11.00;87.32
23059;BME280;30585;51.502;7.218;2023-11-19T06:58:12;100004.63;;;11.00;86.90
23059;BME280;30585;51.502;7.218;2023-11-19T07:00:41;100013.47;;;11.02;86.06
23059;BME280;30585;51.502;7.218;2023-11-19T07:03:08;100013.34;;;11.03;85.97
23059;BME280;30585;51.502;7.218;2023-11-19T07:05:36;99982.53;;;10.74;85.91
23059;BME280;30585;51.502;7.218;2023-11-19T07:08:06;100024.91;;;10.94;86.47
23059;BME280;30585;51.502;7.218;2023-11-19T07:10:34;100019.75;;;10.91;86.17
23059;BME280;30585;51.502;7.218;2023-11-19T07:13:02;100023.19;;;10.93;85.80
23059;BME280;30585;51.502;7.218;2023-11-19T07:15:32;100008.75;;;10.83;85.95
23059;BME280;30585;51.502;7.218;2023-11-19T07:18:01;100025.03;;;10.92;85.53
23059;BME280;30585;51.502;7.218;2023-11-19T07:20:29;100018.88;;;10.90;85.98
23059;BME280;30585;51.502;7.218;2023-11-19T07:22:57;100016.28;;;11.00;84.80
23059;BME280;30585;51.502;7.218;2023-11-19T07:25:25;100006.63;;;10.86;84.26
23059;BME280;30585;51.502;7.218;2023-11-19T07:27:53;100023.19;;;10.93;85.31
23059;BME280;30585;51.502;7.218;2023-11-19T07:30:21;100024.41;;;10.89;85.47
23059;BME280;30585;51.502;7.218;2023-11-19T07:32:48;100034.75;;;10.84;85.13
23059;BME280;30585;51.502;7.218;2023-11-19T07:35:18;100041.03;;;10.84;84.96
23059;BME280;30585;51.502;7.218;2023-11-19T07:37:46;100049.13;;;10.84;85.11
23059;BME280;30585;51.502;7.218;2023-11-19T07:40:16;100047.97;;;10.87;85.34
23059;BME280;30585;51.502;7.218;2023-11-19T07:42:45;100062.88;;;10.81;85.30
23059;BME280;30585;51.502;7.218;2023-11-19T07:45:13;100064.03;;;10.88;84.92
23059;BME280;30585;51.502;7.218;2023-11-19T07:47:41;100061.22;;;10.90;84.97
23059;BME280;30585;51.502;7.218;2023-11-19T07:50:10;100066.63;;;10.90;84.52
23059;BME280;30585;51.502;7.218;2023-11-19T07:52:41;100062.94;;;10.91;84.85
23059;BME280;30585;51.502;7.218;2023-11-19T07:55:09;100074.97;;;10.87;84.81
23059;BME280;30585;51.502;7.218;2023-11-19T07:57:36;100064.91;;;10.89;84.55
23059;BME280;30585;51.502;7.218;2023-11-19T08:00:05;100064.16;;;10.87;84.10
23059;BME280;30585;51.502;7.218;2023-11-19T08:02:33;100067.84;;;10.86;84.88
23059;BME280;30585;51.502;7.218;2023-11-19T08:05:01;100068.00;;;10.84;84.17
23059;BME280;30585;51.502;7.218;2023-11-19T08:07:30;100066.75;;;10.88;84.62
23059;BME280;30585;51.502;7.218;2023-11-19T08:09:59;100073.75;;;10.91;83.71
23059;BME280;30585;51.502;7.218;2023-11-19T08:12:27;100080.97;;;10.90;83.87
23059;BME280;30585;51.502;7.218;2023-11-19T08:14:55;100084.91;;;10.86;83.61
23059;BME280;30585;51.502;7.218;2023-11-19T08:17:24;100088.72;;;10.95;83.41
23059;BME280;30585;51.502;7.218;2023-11-19T08:19:52;100084.28;;;10.94;83.82
23059;BME280;30585;51.502;7.218;2023-11-19T08:22:20;100076.84;;;10.75;83.99
23059;BME280;30585;51.502;7.218;2023-11-19T08:24:48;100090.19;;;10.88;83.49
23059;BME280;30585;51.502;7.218;2023-11-19T08:27:18;100092.03;;;10.87;84.18
23059;BME280;30585;51.502;7.218;2023-11-19T08:29:45;100112.03;;;10.85;83.93
23059;BME280;30585;51.502;7.218;2023-11-19T08:32:13;100101.34;;;10.94;83.49
23059;BME280;30585;51.502;7.218;2023-11-19T08:34:41;100103.06;;;10.95;83.63
23059;BME280;30585;51.502;7.218;2023-11-19T08:37:09;100091.41;;;10.95;83.88
23059;BME280;30585;51.502;7.218;2023-11-19T08:39:37;100099.38;;;10.96;83.97
23059;BME280;30585;51.502;7.218;2023-11-19T08:42:05;100100.00;;;11.00;83.41
23059;BME280;30585;51.502;7.218;2023-11-19T08:44:34;100099.22;;;11.09;84.09
23059;BME280;30585;51.502;7.218;2023-11-19T08:47:02;100098.72;;;11.15;83.62
23059;BME280;30585;51.502;7.218;2023-11-19T08:49:30;100093.31;;;11.15;83.48
23059;BME280;30585;51.502;7.218;2023-11-19T08:51:58;100086.53;;;11.21;82.38
23059;BME280;30585;51.502;7.218;2023-11-19T08:54:26;100080.41;;;11.19;82.05
23059;BME280;30585;51.502;7.218;2023-11-19T08:56:53;100082.50;;;11.15;83.16
23059;BME280;30585;51.502;7.218;2023-11-19T08:59:21;100096.00;;;11.15;82.67
23059;BME280;30585;51.502;7.218;2023-11-19T09:01:51;100088.88;;;11.14;82.91
23059;BME280;30585;51.502;7.218;2023-11-19T09:04:18;100096.50;;;11.20;83.48
23059;BME280;30585;51.502;7.218;2023-11-19T09:06:49;100096.38;;;11.22;82.50
23059;BME280;30585;51.502;7.218;2023-11-19T09:09:16;100110.59;;;11.24;83.23
23059;BME280;30585;51.502;7.218;2023-11-19T09:11:44;100089.84;;;11.24;82.38
23059;BME280;30585;51.502;7.218;2023-11-19T09:14:12;100090.59;;;11.26;82.59
23059;BME280;30585;51.502;7.218;2023-11-19T09:16:40;100102.56;;;11.34;81.86
23059;BME280;30585;51.502;7.218;2023-11-19T09:19:09;100102.91;;;11.40;82.54
23059;BME280;30585;51.502;7.218;2023-11-19T09:21:36;100104.50;;;11.43;81.77
23059;BME280;30585;51.502;7.218;2023-11-19T09:24:06;100114.94;;;11.47;81.49
23059;BME280;30585;51.502;7.218;2023-11-19T09:26:34;100107.44;;;11.51;80.96
23059;BME280;30585;51.502;7.218;2023-11-19T09:29:02;100113.28;;;11.56;82.10
23059;BME280;30585;51.502;7.218;2023-11-19T09:31:30;100085.25;;;11.57;81.59
23059;BME280;30585;51.502;7.218;2023-11-19T09:33:58;100098.25;;;11.63;81.46
23059;BME280;30585;51.502;7.218;2023-11-19T09:36:27;100105.13;;;11.67;81.04
23059;BME280;30585;51.502;7.218;2023-11-19T09:38:55;100099.72;;;11.67;80.72
23059;BME280;30585;51.502;7.218;2023-11-19T09:41:24;100096.75;;;11.70;81.05
23059;BME280;30585;51.502;7.218;2023-11-19T09:43:51;100091.34;;;11.70;80.57
23059;BME280;30585;51.502;7.218;2023-11-19T09:46:19;100063.72;;;11.46;81.42
23059;BME280;30585;51.502;7.218;2023-11-19T09:48:52;100100.53;;;11.79;80.70
23059;BME280;30585;51.502;7.218;2023-11-19T09:51:21;100088.38;;;11.73;80.87
23059;BME280;30585;51.502;7.218;2023-11-19T09:53:51;100099.41;;;11.81;79.46
23059;BME280;30585;51.502;7.218;2023-11-19T09:56:19;100097.44;;;11.83;80.21
23059;BME280;30585;51.502;7.218;2023-11-19T09:58:47;100091.38;;;11.91;80.29
23059;BME280;30585;51.502;7.218;2023-11-19T10:01:15;100091.25;;;11.92;80.06
23059;BME280;30585;51.502;7.218;2023-11-19T10:03:55;100098.66;;;12.00;79.81
23059;BME280;30585;51.502;7.218;2023-11-19T10:06:24;100103.16;;;12.11;79.07
23059;BME280;30585;51.502;7.218;2023-11-19T10:08:55;100074.00;;;12.14;80.02
23059;BME280;30585;51.502;7.218;2023-11-19T10:11:23;100096.00;;;12.30;79.89
23059;BME280;30585;51.502;7.218;2023-11-19T10:13:52;100092.31;;;12.31;78.99
23059;BME280;30585;51.502;7.218;2023-11-19T10:16:21;100083.19;;;12.32;78.88
23059;BME280;30585;51.502;7.218;2023-11-19T10:18:55;100087.13;;;12.19;78.25
23059;BME280;30585;51.502;7.218;2023-11-19T10:21:24;100074.03;;;12.24;78.47
23059;BME280;30585;51.502;7.218;2023-11-19T10:23:53;100073.16;;;12.14;77.29
23059;BME280;30585;51.502;7.218;2023-11-19T10:26:23;100033.41;;;11.84;78.41
23059;BME280;30585;51.502;7.218;2023-11-19T10:28:51;100079.53;;;12.13;77.96
23059;BME280;30585;51.502;7.218;2023-11-19T10:31:19;100098.88;;;12.08;78.16
23059;BME280;30585;51.502;7.218;2023-11-19T10:33:51;100093.00;;;12.03;77.47
23059;BME280;30585;51.502;7.218;2023-11-19T10:36:19;100086.22;;;12.09;78.00
23059;BME280;30585;51.502;7.218;2023-11-19T10:38:52;100073.75;;;12.17;77.26
23059;BME280;30585;51.502;7.218;2023-11-19T10:41:28;100071.47;;;12.22;77.88
23059;BME280;30585;51.502;7.218;2023-11-19T10:43:57;100074.16;;;12.22;77.30
23059;BME280;30585;51.502;7.218;2023-11-19T10:46:36;100039.31;;;11.98;76.59
23059;BME280;30585;51.502;7.218;2023-11-19T10:49:04;100089.00;;;12.28;76.37
23059;BME280;30585;51.502;7.218;2023-11-19T10:51:33;100079.91;;;12.29;76.51
23059;BME280;30585;51.502;7.218;2023-11-19T10:54:02;100077.91;;;12.31;77.24
23059;BME280;30585;51.502;7.218;2023-11-19T10:56:34;100082.34;;;12.32;76.54
23059;BME280;30585;51.502;7.218;2023-11-19T10:59:02;100089.59;;;12.31;76.90
23059;BME280;30585;51.502;7.218;2023-11-19T11:01:35;100067.38;;;12.28;76.90
23059;BME280;30585;51.502;7.218;2023-11-19T11:04:13;100070.91;;;12.19;76.27
23059;BME280;30585;51.502;7.218;2023-11-19T11:06:41;100061.09;;;12.27;77.25
23059;BME280;30585;51.502;7.218;2023-11-19T11:09:10;100068.88;;;12.21;76.18
23059;BME280;30585;51.502;7.218;2023-11-19T11:11:41;100064.53;;;12.29;76.91
23059;BME280;30585;51.502;7.218;2023-11-19T11:14:12;100075.22;;;12.31;77.80
23059;BME280;30585;51.502;7.218;2023-11-19T11:16:42;100058.97;;;12.31;75.82
23059;BME280;30585;51.502;7.218;2023-11-19T11:19:10;100064.25;;;12.32;76.21
23059;BME280;30585;51.502;7.218;2023-11-19T11:21:42;100063.84;;;12.37;76.27
23059;BME280;30585;51.502;7.218;2023-11-19T11:24:28;100069.78;;;12.31;77.15
23059;BME280;30585;51.502;7.218;2023-11-19T11:27:14;100070.78;;;12.30;77.59
23059;BME280;30585;51.502;7.218;2023-11-19T11:29:50;100066.09;;;12.32;77.09
23059;BME280;30585;51.502;7.218;2023-11-19T11:32:33;100068.22;;;12.28;76.38
23059;BME280;30585;51.502;7.218;2023-11-19T11:35:16;100065.19;;;12.22;76.28
23059;BME280;30585;51.502;7.218;2023-11-19T11:37:50;100076.59;;;12.25;76.60
23059;BME280;30585;51.502;7.218;2023-11-19T11:40:19;100071.50;;;12.32;77.05
23059;BME280;30585;51.502;7.218;2023-11-19T11:42:48;100055.47;;;12.40;77.25
23059;BME280;30585;51.502;7.218;2023-11-19T11:45:17;100058.16;;;12.40;74.50
23059;BME280;30585;51.502;7.218;2023-11-19T11:48:17;100060.88;;;12.50;74.25
23059;BME280;30585;51.502;7.218;2023-11-19T11:50:49;100043.69;;;12.60;73.96
23059;BME280;30585;51.502;7.218;2023-11-19T11:53:17;100037.03;;;12.64;73.63
23059;BME280;30585;51.502;7.218;2023-11-19T11:55:56;100028.19;;;12.62;74.76
23059;BME280;30585;51.502;7.218;2023-11-19T11:58:30;100025.63;;;12.61;73.79
23059;BME280;30585;51.502;7.218;2023-11-19T12:00:59;100040.59;;;12.65;74.56
23059;BME280;30585;51.502;7.218;2023-11-19T12:03:29;100047.69;;;12.56;73.43
23059;BME280;30585;51.502;7.218;2023-11-19T12:05:57;100019.97;;;12.43;74.27
23059;BME280;30585;51.502;7.218;2023-11-19T12:08:28;100035.28;;;12.54;74.63
23059;BME280;30585;51.502;7.218;2023-11-19T12:10:57;100019.44;;;12.49;73.68
23059;BME280;30585;51.502;7.218;2023-11-19T12:13:46;100017.91;;;12.56;73.73
23059;BME280;30585;51.502;7.218;2023-11-19T12:16:15;100025.16;;;12.65;73.13
23059;BME280;30585;51.502;7.218;2023-11-19T12:18:43;100022.78;;;12.72;73.14
23059;BME280;30585;51.502;7.218;2023-11-19T12:21:11;100031.38;;;12.87;72.20
23059;BME280;30585;51.502;7.218;2023-11-19T12:23:46;100002.81;;;12.63;72.50
23059;BME280;30585;51.502;7.218;2023-11-19T12:26:31;100030.19;;;12.80;74.04
23059;BME280;30585;51.502;7.218;2023-11-19T12:29:01;100023.50;;;12.74;73.56
23059;BME280;30585;51.502;7.218;2023-11-19T12:31:35;100028.91;;;12.74;73.62
23059;BME280;30585;51.502;7.218;2023-11-19T12:34:07;100027.19;;;12.63;72.59
23059;BME280;30585;51.502;7.218;2023-11-19T12:36:40;100019.34;;;12.60;73.89
23059;BME280;30585;51.502;7.218;2023-11-19T12:39:09;100013.94;;;12.60;74.00
23059;BME280;30585;51.502;7.218;2023-11-19T12:41:52;99963.28;;;12.32;73.50
23059;BME280;30585;51.502;7.218;2023-11-19T12:44:22;99995.25;;;12.57;73.27
23059;BME280;30585;51.502;7.218;2023-11-19T12:47:03;100001.22;;;12.51;74.02
23059;BME280;30585;51.502;7.218;2023-11-19T12:49:32;100000.50;;;12.49;74.31
23059;BME280;30585;51.502;7.218;2023-11-19T12:52:00;99999.63;;;12.49;73.88
23059;BME280;30585;51.502;7.218;2023-11-19T12:54:32;99992.66;;;12.46;74.02
23059;BME280;30585;51.502;7.218;2023-11-19T12:57:00;99992.66;;;12.46;74.39
23059;BME280;30585;51.502;7.218;2023-11-19T12:59:29;99991.66;;;12.47;74.01
23059;BME280;30585;51.502;7.218;2023-11-19T13:01:57;100005.19;;;12.38;75.11
23059;BME280;30585;51.502;7.218;2023-11-19T13:04:28;100003.00;;;12.31;75.08
23059;BME280;30585;51.502;7.218;2023-11-19T13:06:57;100009.38;;;12.21;78.21